• Join FlightAware (Why Join?)
  • Login
  • US Flag 
Trick or treat! (Boo!!) 
08:15AM EDT


 

Airport Tracker/Info


-or-


 

Live Flight TrackerFlight Track Log ✈ N2156B ✈ 31-Aug-2013 ✈ KFRG - KGON

Flight Track Log - Related Links

Times and Time Zones

All times are in EDT time to prevent confusion due to time zone crossing. See the N2156B flight status page for this flight to view local times or setup timezone preferences in your user account.

Time Position Orientation Groundspeed Altitude Reporting Facility
EDT Latitude Longitude Course Direction KTS MPH feet Rate Location/Type
11:17AM 40.7000 -73.4333 180° South 93 107 5,900  Level New York TRACON
11:18AM 40.6833 -73.4333 180° South 93 107 2,300 -1,500 Descending New York TRACON
11:19AM 40.6833 -73.4667 270° West 116 133 3,000 660 Climbing New York TRACON
11:20AM 40.7167 -73.4333 37° Northeast 128 147 3,700 600 Climbing New York TRACON
11:21AM 40.7333 -73.4167 37° Northeast 133 153 4,300 600 Climbing New York TRACON
11:22AM 40.7667 -73.3833 37° Northeast 130 150 5,000 660 Climbing New York TRACON
11:23AM 40.8000 -73.3500 37° Northeast 132 152 5,600 600 Climbing New York TRACON
11:24AM 40.8333 -73.3333 21° North 134 154 6,200 540 Climbing New York TRACON
11:25AM 40.8500 -73.3000 57° Northeast 138 159 6,700 420 Climbing New York TRACON
11:26AM 40.8833 -73.2667 37° Northeast 141 162 7,100 180 Climbing New York TRACON
11:27AM 40.9167 -73.2333 37° Northeast 159 183 7,100  Level New York TRACON
11:28AM 40.9500 -73.2000 37° Northeast 166 191 7,200 60 Climbing New York TRACON
11:29AM 40.9833 -73.1500 49° Northeast 167 192 7,300 -60 Climbing New York TRACON
11:30AM 41.0000 -73.1000 66° East 172 198 7,100 -120 Descending New York TRACON
11:31AM 41.0333 -73.0500 49° Northeast 170 196 7,100  Level New York TRACON
11:32AM 41.0667 -73.0167 37° Northeast 168 193 7,100 -60 Level New York TRACON
11:33AM 41.1000 -72.9667 48° Northeast 170 196 7,000 -60 Descending New York TRACON
11:34AM 41.1167 -72.9167 66° East 172 198 7,000  Level New York TRACON
11:35AM 41.1333 -72.8500 72° East 169 194 7,000  Level New York TRACON
11:36AM 41.1333 -72.7833 90° East 169 194 7,100  Climbing New York TRACON
11:37AM 41.1500 -72.7333 66° East 173 199 7,000 -60 Descending New York TRACON
11:38AM 41.1667 -72.6667 72° East 171 197 7,000  Level New York TRACON
11:39AM 41.1667 -72.6000 90° East 173 199 7,000  Level New York TRACON
11:40AM 41.1833 -72.5500 66° East 172 198 7,000 -60 Level New York TRACON
11:40AM 41.1769 -72.5089 102° East 205 236 6,900 -300 Descending Boston Center
11:42AM 41.1250 -72.4814 158° South 149 171 6,400 -480 Descending Boston Center
11:43AM 41.0811 -72.4539 155° Southeast 208 239 5,800 -660 Descending Boston Center
11:44AM 41.0811 -72.3906 90° East 214 246 5,200 -480 Descending Boston Center
11:45AM 41.0978 -72.3272 71° East 166 191 4,900 -180 Descending Boston Center
11:46AM 41.1206 -72.2719 61° Northeast 155 178 4,900  Level Boston Center
11:47AM 41.1414 -72.2169 63° Northeast 157 181 4,900  Level Boston Center
11:48AM 41.1642 -72.1700 57° Northeast 159 183 4,900  Level Boston Center
11:49AM 41.1828 -72.1175 65° Northeast 158 182 4,900  Level Boston Center
11:50AM 41.2036 -72.0650 62° Northeast 160 184 4,900  Level Boston Center
11:51AM 41.2261 -72.0094 62° Northeast 159 183 4,900  Level Boston Center
11:52AM 41.2469 -71.9514 64° Northeast 156 180 4,900  Level Boston Center
11:53AM 41.2694 -71.9017 59° Northeast 154 177 4,900  Level Boston Center
11:54AM 41.2964 -71.8628 47° Northeast 152 175 4,900  Level Boston Center
11:55AM 41.3297 -71.8236 41° Northeast 146 168 4,900  Level Boston Center
11:56AM 41.3628 -71.7875 39° Northeast 149 171 4,900  Level Boston Center
11:57AM 41.3939 -71.7567 37° Northeast 153 176 4,900 -300 Level Boston Center
11:58AM 41.4289 -71.7203 38° Northeast 157 181 4,400 -600 Descending Boston Center
11:59AM 41.4664 -71.6922 29° Northeast 162 186 3,800 -660 Descending Boston Center
12:00PM 41.5081 -71.6833 North 154 177 3,100 -720 Descending Boston Center
12:01PM 41.5353 -71.7081 326° Northwest 133 153 2,400 -600 Descending Boston Center
12:02PM 41.5417 -71.7494 282° West 131 151 2,000 -240 Descending Boston Center
12:03PM 41.5483 -71.7994 280° West 125 144 2,000  Level Boston Center
12:04PM 41.5444 -71.8356 262° West 123 142 2,000  Level Boston Center
12:05PM 41.5278 -71.8744 240° Southwest 113 130 2,000  Level Boston Center
12:06PM 41.4925 -71.9081 216° Southwest 120 138 2,000  Level Boston Center
12:07PM 41.4636 -71.9275 207° Southwest 121 139 2,000  Level Boston Center